sensor_id;sensor_type;location;lat;lon;timestamp;pressure;altitude;pressure_sealevel;temperature;humidity
14343;BME280;7255;53.596;9.960;2023-03-29T00:02:25;101550.44;;;5.73;nan
14343;BME280;7255;53.596;9.960;2023-03-29T00:04:55;101548.28;;;5.68;nan
14343;BME280;7255;53.596;9.960;2023-03-29T00:07:22;101552.31;;;5.64;nan
14343;BME280;7255;53.596;9.960;2023-03-29T00:09:50;101536.97;;;5.58;nan
14343;BME280;7255;53.596;9.960;2023-03-29T00:12:16;101539.81;;;5.56;nan
14343;BME280;7255;53.596;9.960;2023-03-29T00:14:42;101540.31;;;5.60;nan
14343;BME280;7255;53.596;9.960;2023-03-29T00:17:10;101550.62;;;5.63;nan
14343;BME280;7255;53.596;9.960;2023-03-29T00:19:36;101539.16;;;5.63;nan
14343;BME280;7255;53.596;9.960;2023-03-29T00:22:03;101534.63;;;5.63;nan
14343;BME280;7255;53.596;9.960;2023-03-29T00:24:30;101523.50;;;5.59;nan
14343;BME280;7255;53.596;9.960;2023-03-29T00:26:57;101517.34;;;5.59;nan
14343;BME280;7255;53.596;9.960;2023-03-29T00:29:23;101517.66;;;5.56;nan
14343;BME280;7255;53.596;9.960;2023-03-29T00:31:49;101521.19;;;5.48;nan
14343;BME280;7255;53.596;9.960;2023-03-29T00:34:19;101494.66;;;5.55;nan
14343;BME280;7255;53.596;9.960;2023-03-29T00:36:46;101502.84;;;5.53;nan
14343;BME280;7255;53.596;9.960;2023-03-29T00:39:15;101486.97;;;5.60;nan
14343;BME280;7255;53.596;9.960;2023-03-29T00:41:43;101479.62;;;5.62;nan
14343;BME280;7255;53.596;9.960;2023-03-29T00:47:09;101475.97;;;5.63;nan
14343;BME280;7255;53.596;9.960;2023-03-29T00:49:37;101465.66;;;5.60;nan
14343;BME280;7255;53.596;9.960;2023-03-29T00:52:03;101461.66;;;5.64;nan
14343;BME280;7255;53.596;9.960;2023-03-29T00:54:31;101468.63;;;5.65;nan
14343;BME280;7255;53.596;9.960;2023-03-29T00:56:59;101451.81;;;5.65;nan
14343;BME280;7255;53.596;9.960;2023-03-29T00:59:29;101448.28;;;5.72;nan
14343;BME280;7255;53.596;9.960;2023-03-29T01:01:59;101444.13;;;5.70;nan
14343;BME280;7255;53.596;9.960;2023-03-29T01:04:30;101447.09;;;5.75;nan
14343;BME280;7255;53.596;9.960;2023-03-29T01:07:02;101442.22;;;5.78;nan
14343;BME280;7255;53.596;9.960;2023-03-29T01:09:34;101436.56;;;5.82;nan
14343;BME280;7255;53.596;9.960;2023-03-29T01:12:07;101441.06;;;5.81;nan
14343;BME280;7255;53.596;9.960;2023-03-29T01:14:39;101427.91;;;5.79;nan
14343;BME280;7255;53.596;9.960;2023-03-29T01:17:07;101435.25;;;5.77;nan
14343;BME280;7255;53.596;9.960;2023-03-29T01:19:39;101429.53;;;5.81;nan
14343;BME280;7255;53.596;9.960;2023-03-29T01:22:15;101427.09;;;5.79;nan
14343;BME280;7255;53.596;9.960;2023-03-29T01:24:57;101426.22;;;5.78;nan
14343;BME280;7255;53.596;9.960;2023-03-29T01:27:52;101422.91;;;5.76;nan
14343;BME280;7255;53.596;9.960;2023-03-29T01:30:25;101418.78;;;5.74;nan
14343;BME280;7255;53.596;9.960;2023-03-29T01:32:55;101405.59;;;5.72;nan
14343;BME280;7255;53.596;9.960;2023-03-29T01:35:26;101398.97;;;5.68;nan
14343;BME280;7255;53.596;9.960;2023-03-29T01:38:00;101392.78;;;5.68;nan
14343;BME280;7255;53.596;9.960;2023-03-29T01:40:28;101392.34;;;5.64;nan
14343;BME280;7255;53.596;9.960;2023-03-29T01:43:04;101389.37;;;5.59;nan
14343;BME280;7255;53.596;9.960;2023-03-29T01:45:34;101378.91;;;5.49;nan
14343;BME280;7255;53.596;9.960;2023-03-29T01:48:06;101376.06;;;5.51;nan
14343;BME280;7255;53.596;9.960;2023-03-29T01:50:38;101378.56;;;5.52;nan
14343;BME280;7255;53.596;9.960;2023-03-29T01:53:10;101369.09;;;5.50;nan
14343;BME280;7255;53.596;9.960;2023-03-29T01:55:44;101366.13;;;5.45;nan
14343;BME280;7255;53.596;9.960;2023-03-29T01:58:16;101366.13;;;5.45;nan
14343;BME280;7255;53.596;9.960;2023-03-29T02:00:44;101360.78;;;5.45;nan
14343;BME280;7255;53.596;9.960;2023-03-29T02:03:12;101354.63;;;5.44;nan
14343;BME280;7255;53.596;9.960;2023-03-29T02:05:41;101347.50;;;5.36;nan
14343;BME280;7255;53.596;9.960;2023-03-29T02:08:11;101347.50;;;5.36;nan
14343;BME280;7255;53.596;9.960;2023-03-29T02:10:38;101337.19;;;5.33;nan
14343;BME280;7255;53.596;9.960;2023-03-29T02:13:05;101338.25;;;5.24;nan
14343;BME280;7255;53.596;9.960;2023-03-29T02:15:32;101335.28;;;5.19;nan
14343;BME280;7255;53.596;9.960;2023-03-29T02:17:59;101333.97;;;5.15;nan
14343;BME280;7255;53.596;9.960;2023-03-29T02:20:27;101335.28;;;5.19;nan
14343;BME280;7255;53.596;9.960;2023-03-29T02:23:00;101330.09;;;5.26;nan
14343;BME280;7255;53.596;9.960;2023-03-29T02:25:28;101327.12;;;5.20;nan
14343;BME280;7255;53.596;9.960;2023-03-29T02:27:56;101319.03;;;5.06;nan
14343;BME280;7255;53.596;9.960;2023-03-29T02:30:25;101323.03;;;5.01;nan
14343;BME280;7255;53.596;9.960;2023-03-29T02:32:57;101316.06;;;5.00;nan
14343;BME280;7255;53.596;9.960;2023-03-29T02:35:31;101314.03;;;5.03;nan
14343;BME280;7255;53.596;9.960;2023-03-29T02:38:00;101312.84;;;5.05;nan
14343;BME280;7255;53.596;9.960;2023-03-29T02:40:28;101301.03;;;5.08;nan
14343;BME280;7255;53.596;9.960;2023-03-29T02:42:57;101301.03;;;5.08;nan
14343;BME280;7255;53.596;9.960;2023-03-29T02:45:26;101285.53;;;5.11;nan
14343;BME280;7255;53.596;9.960;2023-03-29T02:47:55;101272.38;;;5.10;nan
14343;BME280;7255;53.596;9.960;2023-03-29T02:50:24;101290.50;;;5.14;nan
14343;BME280;7255;53.596;9.960;2023-03-29T02:52:56;101281.03;;;5.12;nan
14343;BME280;7255;53.596;9.960;2023-03-29T02:55:26;101276.19;;;5.15;nan
14343;BME280;7255;53.596;9.960;2023-03-29T02:57:58;101282.00;;;5.19;nan
14343;BME280;7255;53.596;9.960;2023-03-29T03:00:27;101282.47;;;5.23;nan
14343;BME280;7255;53.596;9.960;2023-03-29T03:02:55;101279.62;;;5.24;nan
14343;BME280;7255;53.596;9.960;2023-03-29T03:05:21;101272.16;;;5.19;nan
14343;BME280;7255;53.596;9.960;2023-03-29T03:07:48;101269.31;;;5.21;nan
14343;BME280;7255;53.596;9.960;2023-03-29T03:10:15;101275.84;;;5.18;nan
14343;BME280;7255;53.596;9.960;2023-03-29T03:12:43;101268.84;;;5.17;nan
14343;BME280;7255;53.596;9.960;2023-03-29T03:15:09;101261.00;;;5.16;nan
14343;BME280;7255;53.596;9.960;2023-03-29T03:17:36;101257.94;;;5.04;nan
14343;BME280;7255;53.596;9.960;2023-03-29T03:20:07;101254.63;;;5.02;nan
14343;BME280;7255;53.596;9.960;2023-03-29T03:22:37;101250.13;;;5.03;nan
14343;BME280;7255;53.596;9.960;2023-03-29T03:25:04;101303.72;;;4.99;nan
14343;BME280;7255;53.596;9.960;2023-03-29T03:27:34;101246.19;;;4.90;nan
14343;BME280;7255;53.596;9.960;2023-03-29T03:30:01;101249.50;;;4.92;nan
14343;BME280;7255;53.596;9.960;2023-03-29T03:32:29;101246.53;;;4.87;nan
14343;BME280;7255;53.596;9.960;2023-03-29T03:34:56;101241.09;;;4.80;nan
14343;BME280;7255;53.596;9.960;2023-03-29T03:37:24;101239.41;;;4.79;nan
14343;BME280;7255;53.596;9.960;2023-03-29T03:39:51;101226.25;;;4.78;nan
14343;BME280;7255;53.596;9.960;2023-03-29T03:42:18;101227.44;;;4.75;nan
14343;BME280;7255;53.596;9.960;2023-03-29T03:44:44;101218.47;;;4.76;nan
14343;BME280;7255;53.596;9.960;2023-03-29T03:47:10;101221.78;;;4.78;nan
14343;BME280;7255;53.596;9.960;2023-03-29T03:49:38;101227.94;;;4.79;nan
14343;BME280;7255;53.596;9.960;2023-03-29T03:52:05;101219.78;;;4.80;nan
14343;BME280;7255;53.596;9.960;2023-03-29T03:54:33;101223.91;;;4.83;nan
14343;BME280;7255;53.596;9.960;2023-03-29T03:56:59;101214.56;;;4.87;nan
14343;BME280;7255;53.596;9.960;2023-03-29T03:59:26;101224.88;;;4.90;nan
14343;BME280;7255;53.596;9.960;2023-03-29T04:01:52;101223.72;;;4.93;nan
14343;BME280;7255;53.596;9.960;2023-03-29T04:04:19;101227.03;;;4.95;nan
14343;BME280;7255;53.596;9.960;2023-03-29T04:06:46;101226.19;;;4.94;nan
14343;BME280;7255;53.596;9.960;2023-03-29T04:09:12;101224.53;;;4.93;nan
14343;BME280;7255;53.596;9.960;2023-03-29T04:11:40;101219.22;;;4.93;nan
14343;BME280;7255;53.596;9.960;2023-03-29T04:14:06;101226.19;;;4.94;nan
14343;BME280;7255;53.596;9.960;2023-03-29T04:16:33;101218.88;;;4.96;nan
14343;BME280;7255;53.596;9.960;2023-03-29T04:18:59;101281.44;;;4.92;nan
14343;BME280;7255;53.596;9.960;2023-03-29T04:21:26;101212.69;;;4.96;nan
14343;BME280;7255;53.596;9.960;2023-03-29T04:23:52;101222.19;;;4.98;nan
14343;BME280;7255;53.596;9.960;2023-03-29T04:26:18;101225.00;;;4.97;nan
14343;BME280;7255;53.596;9.960;2023-03-29T04:28:46;101219.31;;;5.00;nan
14343;BME280;7255;53.596;9.960;2023-03-29T04:31:13;101226.78;;;5.05;nan
14343;BME280;7255;53.596;9.960;2023-03-29T04:33:40;101217.44;;;5.09;nan
14343;BME280;7255;53.596;9.960;2023-03-29T04:36:07;101223.63;;;5.09;nan
14343;BME280;7255;53.596;9.960;2023-03-29T04:38:33;101211.62;;;5.05;nan
14343;BME280;7255;53.596;9.960;2023-03-29T04:41:02;101207.97;;;5.06;nan
14343;BME280;7255;53.596;9.960;2023-03-29T04:43:29;101200.97;;;5.05;nan
14343;BME280;7255;53.596;9.960;2023-03-29T04:45:57;101181.81;;;5.10;nan
14343;BME280;7255;53.596;9.960;2023-03-29T04:48:24;101203.13;;;5.10;nan
14343;BME280;7255;53.596;9.960;2023-03-29T04:50:51;101199.44;;;5.11;nan
14343;BME280;7255;53.596;9.960;2023-03-29T04:53:18;101203.94;;;5.10;nan
14343;BME280;7255;53.596;9.960;2023-03-29T04:55:45;101205.63;;;5.11;nan
14343;BME280;7255;53.596;9.960;2023-03-29T04:58:12;101187.16;;;5.10;nan
14343;BME280;7255;53.596;9.960;2023-03-29T05:00:38;101197.44;;;5.13;nan
14343;BME280;7255;53.596;9.960;2023-03-29T05:03:06;101193.44;;;5.17;nan
14343;BME280;7255;53.596;9.960;2023-03-29T05:05:35;101195.06;;;5.18;nan
14343;BME280;7255;53.596;9.960;2023-03-29T05:08:02;101187.72;;;5.20;nan
14343;BME280;7255;53.596;9.960;2023-03-29T05:10:28;101191.53;;;5.26;nan
14343;BME280;7255;53.596;9.960;2023-03-29T05:12:55;101192.69;;;5.23;nan
14343;BME280;7255;53.596;9.960;2023-03-29T05:15:22;101127.22;;;5.29;nan
14343;BME280;7255;53.596;9.960;2023-03-29T05:17:48;101188.31;;;5.30;nan
14343;BME280;7255;53.596;9.960;2023-03-29T05:20:16;101197.69;;;5.26;nan
14343;BME280;7255;53.596;9.960;2023-03-29T05:22:43;101188.78;;;5.34;nan
14343;BME280;7255;53.596;9.960;2023-03-29T05:25:10;101192.81;;;5.30;nan
14343;BME280;7255;53.596;9.960;2023-03-29T05:27:37;101181.78;;;5.33;nan
14343;BME280;7255;53.596;9.960;2023-03-29T05:30:05;101194.25;;;5.40;nan
14343;BME280;7255;53.596;9.960;2023-03-29T05:32:34;101179.56;;;5.45;nan
14343;BME280;7255;53.596;9.960;2023-03-29T05:35:01;101173.50;;;5.51;nan
14343;BME280;7255;53.596;9.960;2023-03-29T05:37:30;101190.22;;;5.45;nan
14343;BME280;7255;53.596;9.960;2023-03-29T05:39:57;101189.47;;;5.51;nan
14343;BME280;7255;53.596;9.960;2023-03-29T05:42:23;101185.81;;;5.52;nan
14343;BME280;7255;53.596;9.960;2023-03-29T05:44:50;101176.44;;;5.56;nan
14343;BME280;7255;53.596;9.960;2023-03-29T05:47:16;101175.72;;;5.62;nan
14343;BME280;7255;53.596;9.960;2023-03-29T05:49:42;101175.47;;;5.72;nan
14343;BME280;7255;53.596;9.960;2023-03-29T05:52:10;101175.56;;;5.78;nan
14343;BME280;7255;53.596;9.960;2023-03-29T05:54:38;101169.50;;;5.85;nan
14343;BME280;7255;53.596;9.960;2023-03-29T05:57:05;101171.63;;;5.89;nan
14343;BME280;7255;53.596;9.960;2023-03-29T05:59:32;101175.06;;;5.98;nan
14343;BME280;7255;53.596;9.960;2023-03-29T06:01:58;101176.81;;;6.06;nan
14343;BME280;7255;53.596;9.960;2023-03-29T06:04:27;101177.72;;;6.13;nan
14343;BME280;7255;53.596;9.960;2023-03-29T06:06:54;101178.19;;;6.16;nan
14343;BME280;7255;53.596;9.960;2023-03-29T06:09:21;101179.28;;;6.07;nan
14343;BME280;7255;53.596;9.960;2023-03-29T06:11:49;101183.53;;;6.16;nan
14343;BME280;7255;53.596;9.960;2023-03-29T06:14:16;101180.22;;;6.14;nan
14343;BME280;7255;53.596;9.960;2023-03-29T06:16:43;101181.59;;;6.25;nan
14343;BME280;7255;53.596;9.960;2023-03-29T06:19:10;101182.87;;;6.29;nan
14343;BME280;7255;53.596;9.960;2023-03-29T06:21:36;101159.88;;;6.28;nan
14343;BME280;7255;53.596;9.960;2023-03-29T06:24:03;101168.06;;;6.27;nan
14343;BME280;7255;53.596;9.960;2023-03-29T06:26:31;101180.03;;;6.31;nan
14343;BME280;7255;53.596;9.960;2023-03-29T06:28:58;101174.69;;;6.31;nan
14343;BME280;7255;53.596;9.960;2023-03-29T06:31:24;101184.25;;;6.40;nan
14343;BME280;7255;53.596;9.960;2023-03-29T06:33:51;101190.16;;;6.50;nan
14343;BME280;7255;53.596;9.960;2023-03-29T06:36:17;101193.50;;;6.59;nan
14343;BME280;7255;53.596;9.960;2023-03-29T06:38:44;101191.56;;;6.68;nan
14343;BME280;7255;53.596;9.960;2023-03-29T06:41:11;101205.09;;;6.66;nan
14343;BME280;7255;53.596;9.960;2023-03-29T06:43:37;101186.53;;;6.58;nan
14343;BME280;7255;53.596;9.960;2023-03-29T06:46:05;101206.69;;;6.61;nan
14343;BME280;7255;53.596;9.960;2023-03-29T06:48:35;101190.28;;;6.64;nan
14343;BME280;7255;53.596;9.960;2023-03-29T06:51:02;101187.50;;;6.72;nan
14343;BME280;7255;53.596;9.960;2023-03-29T06:53:28;101190.06;;;6.80;nan
14343;BME280;7255;53.596;9.960;2023-03-29T06:55:55;101189.72;;;6.83;nan
14343;BME280;7255;53.596;9.960;2023-03-29T06:58:21;101190.22;;;6.93;nan
14343;BME280;7255;53.596;9.960;2023-03-29T07:00:47;101187.28;;;6.88;nan
14343;BME280;7255;53.596;9.960;2023-03-29T07:03:15;101192.25;;;6.91;nan
14343;BME280;7255;53.596;9.960;2023-03-29T07:05:47;101192.16;;;6.85;nan
14343;BME280;7255;53.596;9.960;2023-03-29T07:08:16;101191.12;;;7.01;nan
14343;BME280;7255;53.596;9.960;2023-03-29T07:10:46;101187.03;;;7.05;nan
14343;BME280;7255;53.596;9.960;2023-03-29T07:13:14;101187.94;;;7.12;nan
14343;BME280;7255;53.596;9.960;2023-03-29T07:15:41;101188.81;;;7.19;nan
14343;BME280;7255;53.596;9.960;2023-03-29T07:18:09;101188.91;;;7.26;nan
14343;BME280;7255;53.596;9.960;2023-03-29T07:20:37;101184.47;;;7.40;nan
14343;BME280;7255;53.596;9.960;2023-03-29T07:23:05;101189.81;;;7.40;nan
14343;BME280;7255;53.596;9.960;2023-03-29T07:25:32;101191.12;;;7.44;nan
14343;BME280;7255;53.596;9.960;2023-03-29T07:27:58;101201.03;;;7.50;nan
14343;BME280;7255;53.596;9.960;2023-03-29T07:30:27;101203.97;;;7.55;nan
14343;BME280;7255;53.596;9.960;2023-03-29T07:32:54;101196.72;;;7.77;nan
14343;BME280;7255;53.596;9.960;2023-03-29T07:35:23;101204.59;;;7.85;nan
14343;BME280;7255;53.596;9.960;2023-03-29T07:37:52;101200.19;;;7.99;nan
14343;BME280;7255;53.596;9.960;2023-03-29T07:40:20;101190.72;;;8.03;nan
14343;BME280;7255;53.596;9.960;2023-03-29T07:42:48;101196.91;;;8.04;nan
14343;BME280;7255;53.596;9.960;2023-03-29T07:45:16;101198.94;;;8.02;nan
14343;BME280;7255;53.596;9.960;2023-03-29T07:47:44;101196.91;;;8.04;nan
14343;BME280;7255;53.596;9.960;2023-03-29T07:50:11;101192.34;;;7.98;nan
14343;BME280;7255;53.596;9.960;2023-03-29T07:52:38;101202.69;;;8.07;nan
14343;BME280;7255;53.596;9.960;2023-03-29T07:55:08;101205.16;;;8.09;nan
14343;BME280;7255;53.596;9.960;2023-03-29T07:57:34;101200.63;;;8.09;nan
14343;BME280;7255;53.596;9.960;2023-03-29T08:00:02;101206.84;;;8.17;nan
14343;BME280;7255;53.596;9.960;2023-03-29T08:02:36;101201.19;;;8.33;nan
14343;BME280;7255;53.596;9.960;2023-03-29T08:05:03;101200.31;;;8.26;nan
14343;BME280;7255;53.596;9.960;2023-03-29T08:07:30;101199.53;;;8.32;nan
14343;BME280;7255;53.596;9.960;2023-03-29T08:09:57;101186.72;;;8.21;nan
14343;BME280;7255;53.596;9.960;2023-03-29T08:12:25;101195.81;;;8.26;nan
14343;BME280;7255;53.596;9.960;2023-03-29T08:14:51;101185.53;;;8.30;nan
14343;BME280;7255;53.596;9.960;2023-03-29T08:17:17;101188.84;;;8.39;nan
14343;BME280;7255;53.596;9.960;2023-03-29T08:19:44;101187.22;;;8.38;nan
14343;BME280;7255;53.596;9.960;2023-03-29T08:22:10;101190.91;;;8.37;nan
14343;BME280;7255;53.596;9.960;2023-03-29T08:24:36;101204.56;;;8.42;nan
14343;BME280;7255;53.596;9.960;2023-03-29T08:27:03;101193.06;;;8.55;nan
14343;BME280;7255;53.596;9.960;2023-03-29T08:29:31;101193.91;;;8.55;nan
14343;BME280;7255;53.596;9.960;2023-03-29T08:31:57;101184.03;;;8.62;nan
14343;BME280;7255;53.596;9.960;2023-03-29T08:34:23;101184.91;;;8.76;nan
14343;BME280;7255;53.596;9.960;2023-03-29T08:36:50;101180.84;;;8.87;nan
14343;BME280;7255;53.596;9.960;2023-03-29T08:39:16;101178.38;;;8.99;nan
14343;BME280;7255;53.596;9.960;2023-03-29T08:41:51;101184.59;;;9.19;nan
14343;BME280;7255;53.596;9.960;2023-03-29T08:44:36;101180.47;;;9.03;nan
14343;BME280;7255;53.596;9.960;2023-03-29T08:47:10;101180.03;;;9.06;nan
14343;BME280;7255;53.596;9.960;2023-03-29T08:49:42;101191.19;;;9.10;nan
14343;BME280;7255;53.596;9.960;2023-03-29T08:52:17;101185.84;;;9.17;nan
14343;BME280;7255;53.596;9.960;2023-03-29T08:54:47;101187.50;;;9.18;nan
14343;BME280;7255;53.596;9.960;2023-03-29T08:57:19;101183.34;;;9.15;nan
14343;BME280;7255;53.596;9.960;2023-03-29T08:59:50;101177.53;;;8.92;nan
14343;BME280;7255;53.596;9.960;2023-03-29T09:02:21;101187.88;;;9.01;nan
14343;BME280;7255;53.596;9.960;2023-03-29T09:04:49;101187.47;;;8.98;nan
14343;BME280;7255;53.596;9.960;2023-03-29T09:07:17;101175.94;;;9.17;nan
14343;BME280;7255;53.596;9.960;2023-03-29T09:09:44;101186.69;;;9.31;nan
14343;BME280;7255;53.596;9.960;2023-03-29T09:12:18;101189.97;;;9.39;nan
14343;BME280;7255;53.596;9.960;2023-03-29T09:14:55;101189.56;;;9.56;nan
14343;BME280;7255;53.596;9.960;2023-03-29T09:17:31;101187.50;;;9.58;nan
14343;BME280;7255;53.596;9.960;2023-03-29T09:20:13;101181.75;;;9.54;nan
14343;BME280;7255;53.596;9.960;2023-03-29T09:22:50;101192.87;;;9.64;nan
14343;BME280;7255;53.596;9.960;2023-03-29T09:25:24;101181.31;;;9.57;nan
14343;BME280;7255;53.596;9.960;2023-03-29T09:27:57;101186.69;;;9.57;nan
14343;BME280;7255;53.596;9.960;2023-03-29T09:30:33;101181.31;;;9.64;nan
14343;BME280;7255;53.596;9.960;2023-03-29T09:33:11;101180.91;;;9.74;nan
14343;BME280;7255;53.596;9.960;2023-03-29T09:35:41;101181.31;;;9.77;nan
14343;BME280;7255;53.596;9.960;2023-03-29T09:38:11;101185.41;;;9.87;nan
14343;BME280;7255;53.596;9.960;2023-03-29T09:40:41;101180.50;;;9.63;nan
14343;BME280;7255;53.596;9.960;2023-03-29T09:43:12;101179.66;;;9.70;nan
14343;BME280;7255;53.596;9.960;2023-03-29T09:45:40;101178.00;;;9.69;nan
14343;BME280;7255;53.596;9.960;2023-03-29T09:48:10;101186.25;;;9.87;nan
14343;BME280;7255;53.596;9.960;2023-03-29T09:50:39;101177.94;;;10.22;nan
14343;BME280;7255;53.596;9.960;2023-03-29T09:53:07;101167.19;;;10.22;nan
14343;BME280;7255;53.596;9.960;2023-03-29T09:55:34;101178.66;;;10.56;nan
14343;BME280;7255;53.596;9.960;2023-03-29T09:58:11;101174.00;;;10.76;nan
14343;BME280;7255;53.596;9.960;2023-03-29T10:00:40;101175.25;;;10.74;nan
14343;BME280;7255;53.596;9.960;2023-03-29T10:03:07;101160.38;;;10.71;nan
14343;BME280;7255;53.596;9.960;2023-03-29T10:05:35;101159.94;;;10.74;nan
14343;BME280;7255;53.596;9.960;2023-03-29T10:08:13;101152.56;;;10.70;nan
14343;BME280;7255;53.596;9.960;2023-03-29T10:10:39;101155.44;;;10.68;nan
14343;BME280;7255;53.596;9.960;2023-03-29T10:13:13;101155.00;;;10.71;nan
14343;BME280;7255;53.596;9.960;2023-03-29T10:15:41;101162.41;;;10.83;nan
14343;BME280;7255;53.596;9.960;2023-03-29T10:18:11;101163.44;;;11.13;nan
14343;BME280;7255;53.596;9.960;2023-03-29T10:20:39;101159.59;;;11.28;nan
14343;BME280;7255;53.596;9.960;2023-03-29T10:23:07;101159.72;;;11.14;nan
14343;BME280;7255;53.596;9.960;2023-03-29T10:25:37;101162.31;;;10.96;nan
14343;BME280;7255;53.596;9.960;2023-03-29T10:28:06;101166.91;;;10.89;nan
14343;BME280;7255;53.596;9.960;2023-03-29T10:30:34;101160.75;;;10.82;nan
14343;BME280;7255;53.596;9.960;2023-03-29T10:33:05;101167.31;;;10.92;nan
14343;BME280;7255;53.596;9.960;2023-03-29T10:35:36;101167.19;;;11.12;nan
14343;BME280;7255;53.596;9.960;2023-03-29T10:38:08;101154.38;;;11.08;nan
14343;BME280;7255;53.596;9.960;2023-03-29T10:40:40;101155.37;;;11.39;nan
14343;BME280;7255;53.596;9.960;2023-03-29T10:43:12;101157.31;;;11.56;nan
14343;BME280;7255;53.596;9.960;2023-03-29T10:45:39;101138.87;;;11.79;nan
14343;BME280;7255;53.596;9.960;2023-03-29T10:48:10;101147.59;;;11.74;nan
14343;BME280;7255;53.596;9.960;2023-03-29T10:50:37;101148.28;;;11.94;nan
14343;BME280;7255;53.596;9.960;2023-03-29T10:53:09;101162.50;;;12.20;nan
14343;BME280;7255;53.596;9.960;2023-03-29T10:55:44;101155.84;;;11.79;nan
14343;BME280;7255;53.596;9.960;2023-03-29T10:58:23;101162.47;;;11.33;nan
14343;BME280;7255;53.596;9.960;2023-03-29T11:00:55;101157.50;;;11.30;nan
14343;BME280;7255;53.596;9.960;2023-03-29T11:03:35;101154.12;;;11.41;nan
14343;BME280;7255;53.596;9.960;2023-03-29T11:06:11;101150.94;;;11.26;nan
14343;BME280;7255;53.596;9.960;2023-03-29T11:08:53;101141.13;;;11.06;nan
14343;BME280;7255;53.596;9.960;2023-03-29T11:11:34;101137.84;;;11.04;nan
14343;BME280;7255;53.596;9.960;2023-03-29T11:14:08;101136.31;;;10.90;nan
14343;BME280;7255;53.596;9.960;2023-03-29T11:16:44;101134.22;;;10.92;nan
14343;BME280;7255;53.596;9.960;2023-03-29T11:19:24;101128.34;;;11.02;nan
14343;BME280;7255;53.596;9.960;2023-03-29T11:22:00;101124.56;;;11.09;nan
14343;BME280;7255;53.596;9.960;2023-03-29T11:24:43;101112.66;;;10.98;nan
14343;BME280;7255;53.596;9.960;2023-03-29T11:27:21;101130.38;;;11.06;nan
14343;BME280;7255;53.596;9.960;2023-03-29T11:29:59;101131.63;;;11.10;nan
14343;BME280;7255;53.596;9.960;2023-03-29T11:32:34;101139.94;;;11.02;nan
14343;BME280;7255;53.596;9.960;2023-03-29T11:35:17;101128.06;;;10.85;nan
14343;BME280;7255;53.596;9.960;2023-03-29T11:37:54;101136.53;;;11.13;nan
14343;BME280;7255;53.596;9.960;2023-03-29T11:40:33;101132.69;;;11.28;nan
14343;BME280;7255;53.596;9.960;2023-03-29T11:43:08;101129.47;;;11.19;nan
14343;BME280;7255;53.596;9.960;2023-03-29T11:45:40;101132.78;;;11.21;nan
14343;BME280;7255;53.596;9.960;2023-03-29T11:48:12;101134.50;;;11.09;nan
14343;BME280;7255;53.596;9.960;2023-03-29T11:50:47;101126.81;;;10.81;nan
14343;BME280;7255;53.596;9.960;2023-03-29T11:53:20;101128.59;;;10.62;nan
14343;BME280;7255;53.596;9.960;2023-03-29T11:55:49;101131.78;;;10.84;nan
14343;BME280;7255;53.596;9.960;2023-03-29T11:58:19;101132.00;;;11.14;nan
14343;BME280;7255;53.596;9.960;2023-03-29T12:00:50;101133.75;;;11.02;nan
14343;BME280;7255;53.596;9.960;2023-03-29T12:03:29;101122.47;;;11.11;nan
14343;BME280;7255;53.596;9.960;2023-03-29T12:06:00;101134.25;;;11.42;nan
14343;BME280;7255;53.596;9.960;2023-03-29T12:08:31;101123.53;;;11.35;nan
14343;BME280;7255;53.596;9.960;2023-03-29T12:11:03;101130.78;;;11.35;nan
14343;BME280;7255;53.596;9.960;2023-03-29T12:13:35;101134.84;;;11.19;nan
14343;BME280;7255;53.596;9.960;2023-03-29T12:16:08;101130.19;;;11.33;nan
14343;BME280;7255;53.596;9.960;2023-03-29T12:18:39;101138.69;;;11.55;nan
14343;BME280;7255;53.596;9.960;2023-03-29T12:21:12;101128.22;;;11.22;nan
14343;BME280;7255;53.596;9.960;2023-03-29T12:23:40;101108.53;;;10.96;nan
14343;BME280;7255;53.596;9.960;2023-03-29T12:26:16;101125.31;;;11.23;nan
14343;BME280;7255;53.596;9.960;2023-03-29T12:28:59;101130.34;;;11.63;nan
14343;BME280;7255;53.596;9.960;2023-03-29T12:31:36;101135.66;;;11.70;nan
14343;BME280;7255;53.596;9.960;2023-03-29T12:34:45;101134.06;;;11.62;nan
14343;BME280;7255;53.596;9.960;2023-03-29T12:37:34;101120.53;;;11.50;nan
14343;BME280;7255;53.596;9.960;2023-03-29T12:40:10;101131.69;;;11.54;nan
14343;BME280;7255;53.596;9.960;2023-03-29T12:42:45;101121.34;;;11.51;nan
14343;BME280;7255;53.596;9.960;2023-03-29T12:45:17;101126.78;;;11.44;nan
14343;BME280;7255;53.596;9.960;2023-03-29T12:47:45;101117.97;;;11.55;nan
14343;BME280;7255;53.596;9.960;2023-03-29T12:50:24;101109.56;;;11.70;nan
14343;BME280;7255;53.596;9.960;2023-03-29T12:53:02;101106.25;;;11.68;nan
14343;BME280;7255;53.596;9.960;2023-03-29T12:55:32;101103.47;;;12.00;nan
14343;BME280;7255;53.596;9.960;2023-03-29T12:58:05;101101.81;;;11.99;nan
14343;BME280;7255;53.596;9.960;2023-03-29T13:00:42;101097.47;;;12.17;nan
14343;BME280;7255;53.596;9.960;2023-03-29T13:03:20;101098.16;;;11.93;nan
14343;BME280;7255;53.596;9.960;2023-03-29T13:05:57;101100.31;;;12.03;nan
14343;BME280;7255;53.596;9.960;2023-03-29T13:08:33;101105.47;;;12.05;nan
14343;BME280;7255;53.596;9.960;2023-03-29T13:11:00;101098.53;;;11.97;nan
14343;BME280;7255;53.596;9.960;2023-03-29T13:13:29;101106.53;;;12.22;nan
14343;BME280;7255;53.596;9.960;2023-03-29T13:16:09;101103.25;;;12.20;nan
14343;BME280;7255;53.596;9.960;2023-03-29T13:18:46;101100.22;;;12.28;nan
14343;BME280;7255;53.596;9.960;2023-03-29T13:21:20;101100.06;;;12.72;nan
14343;BME280;7255;53.596;9.960;2023-03-29T13:23:57;101094.37;;;13.04;nan
14343;BME280;7255;53.596;9.960;2023-03-29T13:26:39;101098.63;;;13.12;nan
14343;BME280;7255;53.596;9.960;2023-03-29T13:29:29;101103.81;;;13.25;nan
14343;BME280;7255;53.596;9.960;2023-03-29T13:32:04;101097.56;;;12.70;nan
14343;BME280;7255;53.596;9.960;2023-03-29T13:34:43;101093.84;;;12.41;nan
14343;BME280;7255;53.596;9.960;2023-03-29T13:37:23;101087.34;;;12.61;nan
14343;BME280;7255;53.596;9.960;2023-03-29T13:39:55;101088.91;;;12.68;nan
14343;BME280;7255;53.596;9.960;2023-03-29T13:42:23;101093.84;;;12.71;nan
14343;BME280;7255;53.596;9.960;2023-03-29T13:44:52;101090.94;;;12.85;nan
14343;BME280;7255;53.596;9.960;2023-03-29T13:47:37;101086.91;;;13.18;nan
14343;BME280;7255;53.596;9.960;2023-03-29T13:50:13;101079.75;;;13.23;nan